createdAt,value
2022-10-07T00:00:26.668Z,19.60
2022-10-07T00:02:55.497Z,21.27
2022-10-07T00:05:31.137Z,24.07
2022-10-07T00:07:59.309Z,24.87
2022-10-07T00:10:29.981Z,23.83
2022-10-07T00:12:58.513Z,24.23
2022-10-07T00:15:27.845Z,23.27
2022-10-07T00:17:57.826Z,22.70
2022-10-07T00:20:29.058Z,24.47
2022-10-07T00:22:57.361Z,23.43
2022-10-07T00:25:31.636Z,24.07
2022-10-07T00:28:06.662Z,24.33
2022-10-07T00:30:40.476Z,24.70
2022-10-07T00:33:13.437Z,25.30
2022-10-07T00:35:41.934Z,23.83
2022-10-07T00:38:10.146Z,24.03
2022-10-07T00:40:38.421Z,23.33
2022-10-07T00:43:24.812Z,24.30
2022-10-07T00:45:56.513Z,25.90
2022-10-07T00:48:25.584Z,25.47
2022-10-07T00:50:58.516Z,24.77
2022-10-07T00:53:46.178Z,25.73
2022-10-07T00:56:19.696Z,22.27
2022-10-07T00:59:01.399Z,24.27
2022-10-07T01:01:32.705Z,21.70
2022-10-07T01:04:03.355Z,22.90
2022-10-07T01:06:51.291Z,23.77
2022-10-07T01:09:24.703Z,22.37
2022-10-07T01:11:57.631Z,25.13
2022-10-07T01:14:35.440Z,24.70
2022-10-07T01:17:08.966Z,23.40
2022-10-07T01:20:14.316Z,23.53
2022-10-07T01:22:54.450Z,21.50
2022-10-07T01:25:28.033Z,22.20
2022-10-07T01:28:03.159Z,23.30
2022-10-07T01:30:34.137Z,25.07
2022-10-07T01:33:07.227Z,24.13
2022-10-07T01:35:39.300Z,23.50
2022-10-07T01:38:13.817Z,24.90
2022-10-07T01:40:44.766Z,23.40
2022-10-07T01:43:26.083Z,46.00
2022-10-07T01:45:55.614Z,22.70
2022-10-07T01:48:31.200Z,24.83
2022-10-07T01:51:38.370Z,23.43
2022-10-07T01:54:17.880Z,22.97
2022-10-07T01:56:59.431Z,24.00
2022-10-07T01:59:42.906Z,22.57
2022-10-07T02:02:16.168Z,22.57
2022-10-07T02:05:01.835Z,22.90
2022-10-07T02:17:53.705Z,22.27
2022-10-07T02:20:33.205Z,21.00
2022-10-07T02:23:42.117Z,20.30
2022-10-07T02:26:18.457Z,22.57
2022-10-07T02:28:55.976Z,21.87
2022-10-07T02:31:37.577Z,22.40
2022-10-07T02:34:16.261Z,23.37
2022-10-07T02:37:19.673Z,22.73
2022-10-07T02:40:06.119Z,22.60
2022-10-07T02:42:48.369Z,22.50
2022-10-07T02:45:26.530Z,22.27
2022-10-07T02:48:00.065Z,25.00
2022-10-07T02:50:33.755Z,23.70
2022-10-07T02:53:03.564Z,23.40
2022-10-07T02:55:35.653Z,23.63
2022-10-07T02:58:28.929Z,24.03
2022-10-07T03:01:03.261Z,23.63
2022-10-07T03:03:47.286Z,22.77
2022-10-07T03:07:02.375Z,21.00
2022-10-07T03:16:49.647Z,19.47
2022-10-07T03:26:18.858Z,16.67
2022-10-07T03:29:15.618Z,19.17
2022-10-07T03:31:47.658Z,18.63
2022-10-07T03:37:06.890Z,17.93
2022-10-07T03:40:10.365Z,17.17
2022-10-07T03:42:52.356Z,15.33
2022-10-07T03:45:51.603Z,15.70
2022-10-07T03:48:34.469Z,16.73
2022-10-07T03:51:09.293Z,17.07
2022-10-07T03:53:45.153Z,15.93
2022-10-07T03:56:49.128Z,15.77
2022-10-07T04:03:14.178Z,14.50
2022-10-07T04:06:14.391Z,15.97
2022-10-07T04:08:49.509Z,15.93
2022-10-07T04:11:59.848Z,16.43
2022-10-07T04:14:46.252Z,14.27
2022-10-07T04:17:32.857Z,14.57
2022-10-07T04:20:02.799Z,15.20
2022-10-07T04:22:43.250Z,15.53
2022-10-07T04:25:30.207Z,13.77
2022-10-07T04:28:09.258Z,16.40
2022-10-07T04:30:45.531Z,15.33
2022-10-07T04:33:19.921Z,15.03
2022-10-07T04:36:18.902Z,15.80
2022-10-07T04:38:57.117Z,15.53
2022-10-07T04:41:34.365Z,15.43
2022-10-07T04:44:02.483Z,16.20
2022-10-07T05:04:16.753Z,16.30
2022-10-07T05:07:45.791Z,13.80
2022-10-07T05:10:55.220Z,15.77
2022-10-07T05:13:50.651Z,15.17
2022-10-07T05:20:20.929Z,14.60
2022-10-07T05:30:07.260Z,15.97
2022-10-07T06:08:52.863Z,16.27
2022-10-07T06:26:35.150Z,21.03
2022-10-07T06:40:12.206Z,32.50
2022-10-07T06:42:41.391Z,30.47
2022-10-07T06:45:09.889Z,29.73
2022-10-07T06:47:38.924Z,25.30
2022-10-07T06:50:07.207Z,31.33
2022-10-07T06:52:38.877Z,23.10
2022-10-07T06:55:25.135Z,26.43
2022-10-07T06:58:04.306Z,21.43
2022-10-07T07:00:37.011Z,25.20
2022-10-07T07:03:14.003Z,23.77
2022-10-07T07:05:45.310Z,24.37
2022-10-07T07:08:17.378Z,26.33
2022-10-07T07:10:47.452Z,28.77
2022-10-07T07:13:15.854Z,24.57
2022-10-07T07:15:43.505Z,25.67
2022-10-07T07:18:14.461Z,27.73
2022-10-07T07:20:45.417Z,31.43
2022-10-07T07:23:13.653Z,31.87
2022-10-07T07:25:44.585Z,23.07
2022-10-07T07:28:15.334Z,21.93
2022-10-07T07:30:43.912Z,25.47
2022-10-07T07:33:12.186Z,17.73
2022-10-07T07:35:41.666Z,13.43
2022-10-07T07:38:12.318Z,16.60
2022-10-07T07:40:40.165Z,22.00
2022-10-07T07:43:09.994Z,12.77
2022-10-07T07:45:42.033Z,17.77
2022-10-07T07:48:10.747Z,14.77
2022-10-07T07:50:40.779Z,17.30
2022-10-07T07:53:11.786Z,13.97
2022-10-07T07:55:42.954Z,12.90
2022-10-07T07:58:11.942Z,12.10
2022-10-07T08:00:44.530Z,15.07
2022-10-07T08:03:12.201Z,16.50
2022-10-07T08:05:42.181Z,17.03
2022-10-07T08:08:13.302Z,14.07
2022-10-07T08:10:43.203Z,13.00
2022-10-07T08:13:13.867Z,12.50
2022-10-07T08:15:51.231Z,13.73
2022-10-07T08:18:19.998Z,13.87
2022-10-07T08:20:57.183Z,29.63
2022-10-07T08:23:26.670Z,12.13
2022-10-07T08:25:54.790Z,10.80
2022-10-07T08:28:22.919Z,14.73
2022-10-07T08:30:54.489Z,11.43
2022-10-07T08:33:23.412Z,13.10
2022-10-07T08:35:52.385Z,12.07
2022-10-07T08:38:20.013Z,10.67
2022-10-07T08:40:48.321Z,9.37
2022-10-07T08:43:16.809Z,7.63
2022-10-07T08:45:45.491Z,9.60
2022-10-07T08:48:18.612Z,9.03
2022-10-07T08:50:51.746Z,9.33
2022-10-07T08:53:22.353Z,9.43
2022-10-07T08:55:52.836Z,9.87
2022-10-07T08:58:34.770Z,9.13
2022-10-07T09:01:07.471Z,8.87
2022-10-07T09:03:46.204Z,8.23
2022-10-07T09:06:16.228Z,9.30
2022-10-07T09:08:46.004Z,10.63
2022-10-07T09:11:20.177Z,10.65
2022-10-07T09:13:53.419Z,10.30
2022-10-07T09:16:22.491Z,14.00
2022-10-07T09:22:09.186Z,12.68
2022-10-07T09:24:37.042Z,10.25
2022-10-07T09:27:09.304Z,9.52
2022-10-07T09:29:37.345Z,82.95
2022-10-07T09:32:05.171Z,11.85
2022-10-07T09:34:33.143Z,12.48
2022-10-07T09:37:24.975Z,10.65
2022-10-07T09:39:58.045Z,11.20
2022-10-07T09:42:31.632Z,12.43
2022-10-07T09:45:01.402Z,11.60
2022-10-07T09:47:30.937Z,12.55
2022-10-07T09:49:59.961Z,15.77
2022-10-07T09:52:31.827Z,12.65
2022-10-07T09:55:26.909Z,12.45
2022-10-07T09:58:00.564Z,12.07
2022-10-07T10:00:31.963Z,11.07
2022-10-07T10:03:05.477Z,10.85
2022-10-07T10:05:35.305Z,10.50
2022-10-07T10:08:04.536Z,11.15
2022-10-07T10:10:34.724Z,10.43
2022-10-07T10:13:03.698Z,11.40
2022-10-07T10:15:41.701Z,10.07
2022-10-07T10:18:26.579Z,11.80
2022-10-07T10:20:54.381Z,13.02
2022-10-07T10:23:26.996Z,10.50
2022-10-07T10:26:17.812Z,9.93
2022-10-07T10:28:49.903Z,12.75
2022-10-07T10:31:21.866Z,11.20
2022-10-07T10:33:59.195Z,10.55
2022-10-07T10:39:29.813Z,10.40
2022-10-07T10:42:13.361Z,11.07
2022-10-07T10:45:18.414Z,10.57
2022-10-07T10:51:44.385Z,10.55
2022-10-07T10:54:27.954Z,10.00
2022-10-07T10:57:05.620Z,9.70
2022-10-07T11:00:49.499Z,10.70
2022-10-07T11:03:21.552Z,10.40
2022-10-07T11:06:26.367Z,10.23
2022-10-07T11:12:33.328Z,11.93
2022-10-07T11:15:14.706Z,10.68
2022-10-07T11:18:04.175Z,10.77
2022-10-07T11:24:02.544Z,11.60
2022-10-07T11:26:34.837Z,11.23
2022-10-07T11:29:05.163Z,12.35
2022-10-07T11:31:35.554Z,11.15
2022-10-07T11:34:13.352Z,10.38
2022-10-07T11:36:45.947Z,13.10
2022-10-07T11:39:16.483Z,14.80
2022-10-07T11:41:47.823Z,14.25
2022-10-07T11:44:18.915Z,10.02
2022-10-07T11:46:46.816Z,11.20
2022-10-07T11:49:18.266Z,24.00
2022-10-07T11:51:51.553Z,21.65
2022-10-07T11:54:21.312Z,10.95
2022-10-07T11:56:50.551Z,11.57
2022-10-07T11:59:48.417Z,10.50
2022-10-07T12:02:34.335Z,8.77
2022-10-07T12:05:02.851Z,10.20
2022-10-07T12:07:48.805Z,10.00
2022-10-07T12:10:23.329Z,10.90
2022-10-07T12:12:52.170Z,9.73
2022-10-07T12:15:26.956Z,11.43
2022-10-07T12:17:57.247Z,12.32
2022-10-07T12:20:45.601Z,12.02
2022-10-07T12:23:32.388Z,12.45
2022-10-07T12:26:02.958Z,11.40
2022-10-07T12:28:34.610Z,11.02
2022-10-07T12:31:03.397Z,9.95
2022-10-07T12:33:34.902Z,9.93
2022-10-07T12:36:20.230Z,11.07
2022-10-07T12:39:09.755Z,13.75
2022-10-07T12:41:45.427Z,12.07
2022-10-07T12:44:20.115Z,11.85
2022-10-07T12:46:52.522Z,12.23
2022-10-07T12:49:22.791Z,10.30
2022-10-07T12:51:51.612Z,10.23
2022-10-07T12:54:21.367Z,11.00
2022-10-07T12:57:37.531Z,10.73
2022-10-07T13:00:08.063Z,10.30
2022-10-07T13:02:59.668Z,12.03
2022-10-07T13:05:53.600Z,10.40
2022-10-07T13:08:43.158Z,9.40
2022-10-07T13:11:25.409Z,9.10
2022-10-07T13:13:57.011Z,10.37
2022-10-07T13:16:27.529Z,8.37
2022-10-07T13:19:02.670Z,10.43
2022-10-07T13:21:34.496Z,9.03
2022-10-07T13:24:02.121Z,8.97
2022-10-07T13:26:29.943Z,9.47
2022-10-07T13:29:02.238Z,9.23
2022-10-07T13:31:33.450Z,8.97
2022-10-07T13:34:04.283Z,9.07
2022-10-07T13:36:35.417Z,13.70
2022-10-07T13:39:13.833Z,10.00
2022-10-07T13:41:43.674Z,10.35
2022-10-07T13:44:15.137Z,9.18
2022-10-07T13:46:52.112Z,9.03
2022-10-07T13:49:26.132Z,9.97
2022-10-07T13:51:56.336Z,9.00
2022-10-07T13:54:25.705Z,8.57
2022-10-07T13:56:53.686Z,8.97
2022-10-07T14:02:11.668Z,8.27
2022-10-07T14:04:52.726Z,8.17
2022-10-07T14:10:25.947Z,8.60
2022-10-07T14:13:10.630Z,8.65
2022-10-07T14:16:03.167Z,9.23
2022-10-07T14:19:03.603Z,8.63
2022-10-07T14:21:40.927Z,8.37
2022-10-07T14:24:09.221Z,15.23
2022-10-07T14:26:52.459Z,8.80
2022-10-07T14:29:23.724Z,9.80
2022-10-07T14:32:20.688Z,10.00
2022-10-07T14:35:06.080Z,10.97
2022-10-07T14:37:34.697Z,10.17
2022-10-07T14:40:02.569Z,10.47
2022-10-07T14:42:35.971Z,8.70
2022-10-07T14:45:04.967Z,9.80
2022-10-07T14:47:34.836Z,10.77
2022-10-07T14:50:02.986Z,10.57
2022-10-07T14:52:32.050Z,10.73
2022-10-07T14:55:01.163Z,10.20
2022-10-07T14:57:28.892Z,11.37
2022-10-07T14:59:56.646Z,10.57
2022-10-07T15:02:24.881Z,10.93
2022-10-07T15:04:54.047Z,11.43
2022-10-07T15:07:22.032Z,11.20
2022-10-07T15:09:49.887Z,11.70
2022-10-07T15:12:17.720Z,11.83
2022-10-07T15:14:45.389Z,11.03
2022-10-07T15:17:14.530Z,10.97
2022-10-07T15:22:26.029Z,10.97
2022-10-07T15:24:53.907Z,12.03
2022-10-07T15:27:32.605Z,12.47
2022-10-07T15:30:05.251Z,14.03
2022-10-07T15:32:35.676Z,13.80
2022-10-07T15:35:03.462Z,13.57
2022-10-07T15:37:45.998Z,14.33
2022-10-07T15:40:14.766Z,14.47
2022-10-07T15:42:44.456Z,13.87
2022-10-07T15:45:12.724Z,13.03
2022-10-07T15:47:40.321Z,12.50
2022-10-07T15:50:08.630Z,11.87
2022-10-07T15:52:37.632Z,12.13
2022-10-07T15:55:07.823Z,12.93
2022-10-07T15:57:37.130Z,11.57
2022-10-07T16:00:08.696Z,11.87
2022-10-07T16:02:36.608Z,13.30
2022-10-07T16:05:04.614Z,12.77
2022-10-07T16:07:35.156Z,12.60
2022-10-07T16:10:09.570Z,13.70
2022-10-07T16:12:40.445Z,13.00
2022-10-07T16:15:08.595Z,12.80
2022-10-07T16:17:36.408Z,12.57
2022-10-07T16:20:10.419Z,12.77
2022-10-07T16:22:38.984Z,13.30
2022-10-07T16:25:09.368Z,14.20
2022-10-07T16:27:50.929Z,13.83
2022-10-07T16:30:45.937Z,14.70
2022-10-07T16:33:13.681Z,16.20
2022-10-07T16:35:42.304Z,15.23
2022-10-07T16:38:10.024Z,15.97
2022-10-07T16:40:41.404Z,18.13
2022-10-07T16:43:09.329Z,18.90
2022-10-07T16:45:40.424Z,19.07
2022-10-07T16:48:08.264Z,20.90
2022-10-07T16:50:36.389Z,20.90
2022-10-07T16:53:07.572Z,20.47
2022-10-07T16:55:39.597Z,19.70
2022-10-07T16:58:07.375Z,18.23
2022-10-07T17:00:35.802Z,19.07
2022-10-07T17:03:03.545Z,19.97
2022-10-07T17:05:31.162Z,19.67
2022-10-07T17:07:58.855Z,21.10
2022-10-07T17:13:49.551Z,23.03
2022-10-07T17:16:17.511Z,27.77
2022-10-07T17:18:45.395Z,25.03
2022-10-07T17:21:13.515Z,27.23
2022-10-07T17:23:41.729Z,27.17
2022-10-07T17:26:09.866Z,29.60
2022-10-07T17:28:38.129Z,28.63
2022-10-07T17:31:10.967Z,32.30
2022-10-07T17:33:40.338Z,32.30
2022-10-07T17:36:09.215Z,29.07
2022-10-07T17:38:40.430Z,29.70
2022-10-07T17:41:11.844Z,28.33
2022-10-07T17:43:48.800Z,27.73
2022-10-07T17:46:18.359Z,28.50
2022-10-07T17:48:47.615Z,32.07
2022-10-07T17:51:16.240Z,31.67
2022-10-07T17:53:52.092Z,32.07
2022-10-07T17:56:20.242Z,28.90
2022-10-07T17:58:48.707Z,27.90
2022-10-07T18:01:23.184Z,29.87
2022-10-07T18:03:52.721Z,27.13
2022-10-07T18:06:24.173Z,25.73
2022-10-07T18:08:54.984Z,22.60
2022-10-07T18:11:43.345Z,21.80
2022-10-07T18:14:28.334Z,23.20
2022-10-07T18:16:57.671Z,25.97
2022-10-07T18:19:26.572Z,25.47
2022-10-07T18:21:56.449Z,25.67
2022-10-07T18:24:27.482Z,27.03
2022-10-07T18:26:59.213Z,27.40
2022-10-07T18:29:27.166Z,28.23
2022-10-07T18:31:55.201Z,26.37
2022-10-07T18:34:24.957Z,28.07
2022-10-07T18:36:59.082Z,27.27
2022-10-07T18:39:30.053Z,24.27
2022-10-07T18:41:58.053Z,25.80
2022-10-07T18:44:29.364Z,24.30
2022-10-07T18:46:57.253Z,21.30
2022-10-07T18:49:27.516Z,20.90
2022-10-07T18:51:55.646Z,19.23
2022-10-07T18:54:23.584Z,18.17
2022-10-07T18:56:52.074Z,16.37
2022-10-07T18:59:20.212Z,16.47
2022-10-07T19:01:50.801Z,15.30
2022-10-07T19:04:19.031Z,15.90
2022-10-07T19:06:49.085Z,16.50
2022-10-07T19:09:18.312Z,15.27
2022-10-07T19:11:47.535Z,17.47
2022-10-07T19:14:14.928Z,17.57
2022-10-07T19:16:43.829Z,17.63
2022-10-07T19:19:17.296Z,17.20
2022-10-07T19:21:46.351Z,17.97
2022-10-07T19:24:16.163Z,19.33
2022-10-07T19:26:48.518Z,18.30
2022-10-07T19:29:18.182Z,19.20
2022-10-07T19:31:48.967Z,18.17
2022-10-07T19:34:17.863Z,19.67
2022-10-07T19:36:47.381Z,18.97
2022-10-07T19:39:18.966Z,19.73
2022-10-07T19:41:48.652Z,19.93
2022-10-07T19:44:17.130Z,18.47
2022-10-07T19:46:45.225Z,19.10
2022-10-07T19:49:13.410Z,17.97
2022-10-07T19:51:42.389Z,19.83
2022-10-07T19:54:12.470Z,19.73
2022-10-07T19:56:43.967Z,18.27
2022-10-07T19:59:12.763Z,18.30
2022-10-07T20:01:42.325Z,17.70
2022-10-07T20:04:14.272Z,17.50
2022-10-07T20:06:42.747Z,18.33
2022-10-07T20:09:12.053Z,17.00
2022-10-07T20:11:43.982Z,18.33
2022-10-07T20:14:16.302Z,17.50
2022-10-07T20:16:44.944Z,16.53
2022-10-07T20:19:15.550Z,17.70
2022-10-07T20:21:46.841Z,17.47
2022-10-07T20:24:16.562Z,17.53
2022-10-07T20:26:46.166Z,17.93
2022-10-07T20:29:16.325Z,16.87
2022-10-07T20:31:44.727Z,17.23
2022-10-07T20:34:16.117Z,17.27
2022-10-07T20:36:44.670Z,17.10
2022-10-07T20:39:34.616Z,17.37
2022-10-07T20:42:22.758Z,16.87
2022-10-07T20:44:50.911Z,17.13
2022-10-07T20:47:19.353Z,16.53
2022-10-07T20:49:49.101Z,18.03
2022-10-07T20:52:17.976Z,18.57
2022-10-07T20:54:46.249Z,18.10
2022-10-07T20:57:16.855Z,16.67
2022-10-07T21:00:03.227Z,16.37
2022-10-07T21:03:27.164Z,16.53
2022-10-07T21:06:00.671Z,17.67
2022-10-07T21:08:32.081Z,20.77
2022-10-07T21:11:31.920Z,19.77
2022-10-07T21:21:34.659Z,20.87
2022-10-07T21:24:05.071Z,21.90
2022-10-07T21:26:53.638Z,24.00
2022-10-07T21:29:23.711Z,21.70
2022-10-07T21:32:39.873Z,23.87
2022-10-07T22:20:41.894Z,17.37
2022-10-07T22:23:12.675Z,19.83
2022-10-07T22:25:42.683Z,20.67
2022-10-07T22:31:45.168Z,18.10
2022-10-07T22:37:50.114Z,16.73
2022-10-07T22:41:12.490Z,21.13
2022-10-07T22:46:49.741Z,20.63
2022-10-07T22:50:10.930Z,21.27
2022-10-07T22:52:44.104Z,22.23
2022-10-07T22:55:27.413Z,26.23
2022-10-07T23:00:50.881Z,22.60
2022-10-07T23:03:30.278Z,25.27
2022-10-07T23:06:03.953Z,25.17
2022-10-07T23:08:33.910Z,28.37
2022-10-07T23:11:20.390Z,25.43
2022-10-07T23:13:57.656Z,35.33
2022-10-07T23:19:54.507Z,25.10
2022-10-07T23:23:05.082Z,25.50
2022-10-07T23:26:05.190Z,24.37
2022-10-07T23:28:36.637Z,24.57
2022-10-07T23:31:05.014Z,23.40
2022-10-07T23:33:33.348Z,25.80
2022-10-07T23:36:05.894Z,25.07
2022-10-07T23:38:36.575Z,26.67
2022-10-07T23:41:06.709Z,26.13
2022-10-07T23:43:35.223Z,25.37
2022-10-07T23:46:13.193Z,26.37
2022-10-07T23:52:09.989Z,26.30
2022-10-07T23:54:54.688Z,25.97
2022-10-07T23:57:23.337Z,27.27
2022-10-07T23:59:51.227Z,25.87
